sensor_id;sensor_type;location;lat;lon;timestamp;pressure;altitude;pressure_sealevel;temperature;humidity
78198;BME280;67472;51.554;7.812;2023-02-01T00:01:54;101113.91;;;5.01;100.00
78198;BME280;67472;51.554;7.812;2023-02-01T00:04:25;101112.66;;;5.08;100.00
78198;BME280;67472;51.554;7.812;2023-02-01T00:08:08;101108.78;;;5.15;100.00
78198;BME280;67472;51.554;7.812;2023-02-01T00:11:09;101119.19;;;5.17;100.00
78198;BME280;67472;51.554;7.812;2023-02-01T00:13:54;101117.88;;;5.25;100.00
78198;BME280;67472;51.554;7.812;2023-02-01T00:16:39;101122.69;;;5.33;100.00
78198;BME280;67472;51.554;7.812;2023-02-01T00:19:23;101104.25;;;5.34;100.00
78198;BME280;67472;51.554;7.812;2023-02-01T00:22:08;101085.84;;;5.36;100.00
78198;BME280;67472;51.554;7.812;2023-02-01T00:24:52;101083.28;;;5.34;100.00
78198;BME280;67472;51.554;7.812;2023-02-01T00:27:36;101080.03;;;5.31;100.00
78198;BME280;67472;51.554;7.812;2023-02-01T00:30:21;101082.63;;;5.31;100.00
78198;BME280;67472;51.554;7.812;2023-02-01T00:33:05;101081.84;;;5.29;100.00
78198;BME280;67472;51.554;7.812;2023-02-01T00:35:50;101075.03;;;5.42;100.00
78198;BME280;67472;51.554;7.812;2023-02-01T00:38:37;101073.16;;;5.44;100.00
78198;BME280;67472;51.554;7.812;2023-02-01T00:41:22;101070.66;;;5.42;100.00
78198;BME280;67472;51.554;7.812;2023-02-01T00:44:06;101077.72;;;5.40;100.00
78198;BME280;67472;51.554;7.812;2023-02-01T00:46:51;101060.75;;;5.47;100.00
78198;BME280;67472;51.554;7.812;2023-02-01T00:49:35;101048.66;;;5.45;100.00
78198;BME280;67472;51.554;7.812;2023-02-01T00:52:20;101052.03;;;5.47;100.00
78198;BME280;67472;51.554;7.812;2023-02-01T00:55:05;101059.03;;;5.46;100.00
78198;BME280;67472;51.554;7.812;2023-02-01T00:57:49;101051.53;;;5.40;100.00
78198;BME280;67472;51.554;7.812;2023-02-01T01:00:34;101062.34;;;5.34;100.00
78198;BME280;67472;51.554;7.812;2023-02-01T01:03:19;101055.34;;;5.35;100.00
78198;BME280;67472;51.554;7.812;2023-02-01T01:06:06;101044.00;;;5.34;100.00
78198;BME280;67472;51.554;7.812;2023-02-01T01:08:53;101050.94;;;5.35;100.00
78198;BME280;67472;51.554;7.812;2023-02-01T01:11:38;101049.00;;;5.39;100.00
78198;BME280;67472;51.554;7.812;2023-02-01T01:14:24;101032.44;;;5.38;100.00
78198;BME280;67472;51.554;7.812;2023-02-01T01:17:09;101032.72;;;5.34;100.00
78198;BME280;67472;51.554;7.812;2023-02-01T01:19:53;101035.06;;;5.38;100.00
78198;BME280;67472;51.554;7.812;2023-02-01T01:22:37;101027.13;;;5.40;100.00
78198;BME280;67472;51.554;7.812;2023-02-01T01:25:22;101014.09;;;5.38;100.00
78198;BME280;67472;51.554;7.812;2023-02-01T01:28:07;101015.88;;;5.38;100.00
78198;BME280;67472;51.554;7.812;2023-02-01T01:30:51;101012.22;;;5.40;100.00
78198;BME280;67472;51.554;7.812;2023-02-01T01:33:36;101006.25;;;5.38;100.00
78198;BME280;67472;51.554;7.812;2023-02-01T01:36:21;100999.25;;;5.39;100.00
78198;BME280;67472;51.554;7.812;2023-02-01T01:39:06;100986.38;;;5.34;100.00
78198;BME280;67472;51.554;7.812;2023-02-01T01:41:51;100981.06;;;5.36;100.00
78198;BME280;67472;51.554;7.812;2023-02-01T01:45:22;100985.41;;;5.37;100.00
78198;BME280;67472;51.554;7.812;2023-02-01T01:48:47;100978.34;;;5.37;100.00
78198;BME280;67472;51.554;7.812;2023-02-01T01:51:25;100973.13;;;5.37;100.00
78198;BME280;67472;51.554;7.812;2023-02-01T01:54:17;100974.75;;;5.40;100.00
78198;BME280;67472;51.554;7.812;2023-02-01T01:57:12;100967.31;;;5.32;100.00
78198;BME280;67472;51.554;7.812;2023-02-01T02:00:10;100959.63;;;5.29;100.00
78198;BME280;67472;51.554;7.812;2023-02-01T02:03:00;100948.22;;;5.30;100.00
78198;BME280;67472;51.554;7.812;2023-02-01T02:05:52;100946.34;;;5.32;100.00
78198;BME280;67472;51.554;7.812;2023-02-01T02:08:37;100937.75;;;5.30;100.00
78198;BME280;67472;51.554;7.812;2023-02-01T02:11:25;100944.06;;;5.26;100.00
78198;BME280;67472;51.554;7.812;2023-02-01T02:14:12;100938.25;;;5.21;100.00
78198;BME280;67472;51.554;7.812;2023-02-01T02:17:40;100934.13;;;5.17;100.00
78198;BME280;67472;51.554;7.812;2023-02-01T02:33:41;100925.22;;;5.35;100.00
78198;BME280;67472;51.554;7.812;2023-02-01T02:48:40;100931.38;;;5.34;100.00
78198;BME280;67472;51.554;7.812;2023-02-01T02:51:38;100923.47;;;5.36;100.00
78198;BME280;67472;51.554;7.812;2023-02-01T02:54:46;100921.88;;;5.33;100.00
78198;BME280;67472;51.554;7.812;2023-02-01T02:57:40;100915.50;;;5.37;100.00
78198;BME280;67472;51.554;7.812;2023-02-01T03:00:45;100902.56;;;5.34;100.00
78198;BME280;67472;51.554;7.812;2023-02-01T03:03:48;100902.41;;;5.37;100.00
78198;BME280;67472;51.554;7.812;2023-02-01T03:13:46;100877.56;;;5.44;100.00
78198;BME280;67472;51.554;7.812;2023-02-01T03:19:30;100879.78;;;5.36;100.00
78198;BME280;67472;51.554;7.812;2023-02-01T03:22:24;100861.53;;;5.35;100.00
78198;BME280;67472;51.554;7.812;2023-02-01T03:25:16;100859.34;;;5.27;100.00
78198;BME280;67472;51.554;7.812;2023-02-01T03:28:07;100856.56;;;5.30;100.00
78198;BME280;67472;51.554;7.812;2023-02-01T03:30:53;100848.78;;;5.29;100.00
78198;BME280;67472;51.554;7.812;2023-02-01T03:33:38;100843.28;;;5.33;100.00
78198;BME280;67472;51.554;7.812;2023-02-01T03:42:09;100836.34;;;5.32;100.00
78198;BME280;67472;51.554;7.812;2023-02-01T03:45:20;100843.13;;;5.36;100.00
78198;BME280;67472;51.554;7.812;2023-02-01T03:48:08;100832.72;;;5.35;100.00
78198;BME280;67472;51.554;7.812;2023-02-01T03:50:57;100841.53;;;5.34;100.00
78198;BME280;67472;51.554;7.812;2023-02-01T03:53:45;100841.94;;;5.26;100.00
78198;BME280;67472;51.554;7.812;2023-02-01T03:56:36;100837.75;;;5.24;100.00
78198;BME280;67472;51.554;7.812;2023-02-01T03:59:21;100842.13;;;5.23;100.00
78198;BME280;67472;51.554;7.812;2023-02-01T04:02:05;100835.13;;;5.24;100.00
78198;BME280;67472;51.554;7.812;2023-02-01T04:04:50;100824.47;;;5.27;100.00
78198;BME280;67472;51.554;7.812;2023-02-01T04:07:37;100823.63;;;5.26;100.00
78198;BME280;67472;51.554;7.812;2023-02-01T04:10:22;100821.94;;;5.25;100.00
78198;BME280;67472;51.554;7.812;2023-02-01T04:13:06;100824.75;;;5.22;100.00
78198;BME280;67472;51.554;7.812;2023-02-01T04:15:50;100827.53;;;5.19;100.00
78198;BME280;67472;51.554;7.812;2023-02-01T04:18:35;100832.44;;;5.25;100.00
78198;BME280;67472;51.554;7.812;2023-02-01T04:21:19;100823.53;;;5.28;100.00
78198;BME280;67472;51.554;7.812;2023-02-01T04:24:04;100835.97;;;5.24;100.00
78198;BME280;67472;51.554;7.812;2023-02-01T04:26:49;100830.44;;;5.29;100.00
78198;BME280;67472;51.554;7.812;2023-02-01T04:29:33;100836.47;;;5.31;100.00
78198;BME280;67472;51.554;7.812;2023-02-01T04:32:18;100815.69;;;5.28;100.00
78198;BME280;67472;51.554;7.812;2023-02-01T04:35:04;100816.72;;;5.25;100.00
78198;BME280;67472;51.554;7.812;2023-02-01T04:37:48;100821.09;;;5.25;100.00
78198;BME280;67472;51.554;7.812;2023-02-01T04:40:33;100814.16;;;5.24;100.00
78198;BME280;67472;51.554;7.812;2023-02-01T04:43:17;100806.13;;;5.27;100.00
78198;BME280;67472;51.554;7.812;2023-02-01T04:46:02;100790.06;;;5.33;100.00
78198;BME280;67472;51.554;7.812;2023-02-01T04:48:46;100802.41;;;5.31;100.00
78198;BME280;67472;51.554;7.812;2023-02-01T04:51:31;100792.97;;;5.28;100.00
78198;BME280;67472;51.554;7.812;2023-02-01T04:54:16;100803.53;;;5.27;100.00
78198;BME280;67472;51.554;7.812;2023-02-01T04:57:01;100794.81;;;5.26;100.00
78198;BME280;67472;51.554;7.812;2023-02-01T04:59:45;100799.13;;;5.27;100.00
78198;BME280;67472;51.554;7.812;2023-02-01T05:02:30;100803.44;;;5.28;100.00
78198;BME280;67472;51.554;7.812;2023-02-01T05:05:15;100798.78;;;5.33;100.00
78198;BME280;67472;51.554;7.812;2023-02-01T05:08:00;100812.47;;;5.23;100.00
78198;BME280;67472;51.554;7.812;2023-02-01T05:10:44;100820.25;;;5.24;100.00
78198;BME280;67472;51.554;7.812;2023-02-01T05:13:29;100821.78;;;5.28;100.00
78198;BME280;67472;51.554;7.812;2023-02-01T05:16:37;100816.72;;;5.25;100.00
78198;BME280;67472;51.554;7.812;2023-02-01T05:19:54;100813.06;;;5.28;100.00
78198;BME280;67472;51.554;7.812;2023-02-01T05:23:01;100806.63;;;5.33;100.00
78198;BME280;67472;51.554;7.812;2023-02-01T05:26:07;100810.91;;;5.34;100.00
78198;BME280;67472;51.554;7.812;2023-02-01T05:29:24;100813.63;;;5.33;100.00
78198;BME280;67472;51.554;7.812;2023-02-01T05:32:22;100806.53;;;5.35;100.00
78198;BME280;67472;51.554;7.812;2023-02-01T05:35:07;100804.00;;;5.33;100.00
78198;BME280;67472;51.554;7.812;2023-02-01T05:37:51;100815.03;;;5.38;100.00
78198;BME280;67472;51.554;7.812;2023-02-01T05:40:36;100823.81;;;5.37;100.00
78198;BME280;67472;51.554;7.812;2023-02-01T05:43:21;100814.13;;;5.39;100.00
78198;BME280;67472;51.554;7.812;2023-02-01T05:46:05;100814.31;;;5.36;100.00
78198;BME280;67472;51.554;7.812;2023-02-01T05:48:50;100811.75;;;5.35;100.00
78198;BME280;67472;51.554;7.812;2023-02-01T05:51:34;100802.81;;;5.39;100.00
78198;BME280;67472;51.554;7.812;2023-02-01T05:54:19;100797.47;;;5.40;100.00
78198;BME280;67472;51.554;7.812;2023-02-01T05:57:03;100790.72;;;5.36;100.00
78198;BME280;67472;51.554;7.812;2023-02-01T05:59:47;100788.28;;;5.33;100.00
78198;BME280;67472;51.554;7.812;2023-02-01T06:02:32;100799.69;;;5.32;100.00
78198;BME280;67472;51.554;7.812;2023-02-01T06:05:17;100800.63;;;5.31;100.00
78198;BME280;67472;51.554;7.812;2023-02-01T06:08:01;100801.28;;;5.35;100.00
78198;BME280;67472;51.554;7.812;2023-02-01T06:10:46;100770.16;;;5.30;100.00
78198;BME280;67472;51.554;7.812;2023-02-01T06:13:31;100781.38;;;5.32;100.00
78198;BME280;67472;51.554;7.812;2023-02-01T06:16:15;100790.63;;;5.38;100.00
78198;BME280;67472;51.554;7.812;2023-02-01T06:19:00;100789.72;;;5.39;100.00
78198;BME280;67472;51.554;7.812;2023-02-01T06:21:44;100796.72;;;5.38;100.00
78198;BME280;67472;51.554;7.812;2023-02-01T06:24:29;100784.09;;;5.45;100.00
78198;BME280;67472;51.554;7.812;2023-02-01T06:27:14;100798.06;;;5.45;100.00
78198;BME280;67472;51.554;7.812;2023-02-01T06:29:59;100805.91;;;5.45;100.00
78198;BME280;67472;51.554;7.812;2023-02-01T06:32:43;100803.28;;;5.45;100.00
78198;BME280;67472;51.554;7.812;2023-02-01T06:35:28;100815.53;;;5.45;100.00
78198;BME280;67472;51.554;7.812;2023-02-01T06:38:13;100797.19;;;5.45;100.00
78198;BME280;67472;51.554;7.812;2023-02-01T06:40:58;100804.50;;;5.40;100.00
78198;BME280;67472;51.554;7.812;2023-02-01T06:43:42;100807.94;;;5.40;100.00
78198;BME280;67472;51.554;7.812;2023-02-01T06:46:27;100809.25;;;5.33;100.00
78198;BME280;67472;51.554;7.812;2023-02-01T06:49:11;100815.75;;;5.26;100.00
78198;BME280;67472;51.554;7.812;2023-02-01T06:51:59;100815.75;;;5.26;100.00
78198;BME280;67472;51.554;7.812;2023-02-01T06:54:46;100826.34;;;5.25;100.00
78198;BME280;67472;51.554;7.812;2023-02-01T06:57:31;100822.53;;;5.30;100.00
78198;BME280;67472;51.554;7.812;2023-02-01T07:00:17;100835.78;;;5.27;100.00
78198;BME280;67472;51.554;7.812;2023-02-01T07:03:02;100832.31;;;5.27;100.00
78198;BME280;67472;51.554;7.812;2023-02-01T07:05:46;100841.09;;;5.26;100.00
78198;BME280;67472;51.554;7.812;2023-02-01T07:08:32;100830.81;;;5.23;100.00
78198;BME280;67472;51.554;7.812;2023-02-01T07:11:18;100842.81;;;5.27;100.00
78198;BME280;67472;51.554;7.812;2023-02-01T07:14:03;100848.53;;;5.33;100.00
78198;BME280;67472;51.554;7.812;2023-02-01T07:16:47;100855.53;;;5.33;100.00
78198;BME280;67472;51.554;7.812;2023-02-01T07:19:32;100863.22;;;5.36;100.00
78198;BME280;67472;51.554;7.812;2023-02-01T07:22:17;100852.00;;;5.34;100.00
78198;BME280;67472;51.554;7.812;2023-02-01T07:25:01;100863.22;;;5.36;100.00
78198;BME280;67472;51.554;7.812;2023-02-01T07:27:45;100877.84;;;5.40;100.00
78198;BME280;67472;51.554;7.812;2023-02-01T07:30:30;100861.09;;;5.42;100.00
78198;BME280;67472;51.554;7.812;2023-02-01T07:33:15;100855.94;;;5.41;100.00
78198;BME280;67472;51.554;7.812;2023-02-01T07:36:04;100870.78;;;5.40;100.00
78198;BME280;67472;51.554;7.812;2023-02-01T07:38:48;100859.97;;;5.46;100.00
78198;BME280;67472;51.554;7.812;2023-02-01T07:41:32;100899.34;;;5.45;100.00
78198;BME280;67472;51.554;7.812;2023-02-01T07:44:17;100878.41;;;5.45;100.00
78198;BME280;67472;51.554;7.812;2023-02-01T07:47:06;100890.72;;;5.43;100.00
78198;BME280;67472;51.554;7.812;2023-02-01T07:49:50;100894.38;;;5.40;100.00
78198;BME280;67472;51.554;7.812;2023-02-01T07:52:35;100899.19;;;5.48;100.00
78198;BME280;67472;51.554;7.812;2023-02-01T07:55:20;100892.53;;;5.42;100.00
78198;BME280;67472;51.554;7.812;2023-02-01T07:58:04;100897.75;;;5.42;100.00
78198;BME280;67472;51.554;7.812;2023-02-01T08:00:49;100893.28;;;5.44;100.00
78198;BME280;67472;51.554;7.812;2023-02-01T08:03:53;100896.75;;;5.45;100.00
78198;BME280;67472;51.554;7.812;2023-02-01T08:06:38;100885.13;;;5.49;100.00
78198;BME280;67472;51.554;7.812;2023-02-01T08:09:23;100889.94;;;5.56;100.00
78198;BME280;67472;51.554;7.812;2023-02-01T08:12:07;100886.75;;;5.51;100.00
78198;BME280;67472;51.554;7.812;2023-02-01T08:14:52;100894.34;;;5.56;100.00
78198;BME280;67472;51.554;7.812;2023-02-01T08:17:37;100889.66;;;5.61;100.00
78198;BME280;67472;51.554;7.812;2023-02-01T08:20:22;100890.69;;;5.58;100.00
78198;BME280;67472;51.554;7.812;2023-02-01T08:23:10;100897.63;;;5.59;100.00
78198;BME280;67472;51.554;7.812;2023-02-01T08:26:04;100906.91;;;5.65;100.00
78198;BME280;67472;51.554;7.812;2023-02-01T08:29:00;100884.16;;;5.65;100.00
78198;BME280;67472;51.554;7.812;2023-02-01T08:31:44;100892.09;;;5.64;100.00
78198;BME280;67472;51.554;7.812;2023-02-01T08:34:29;100896.78;;;5.59;100.00
78198;BME280;67472;51.554;7.812;2023-02-01T08:37:13;100896.66;;;5.60;100.00
78198;BME280;67472;51.554;7.812;2023-02-01T08:39:58;100916.72;;;5.61;100.00
78198;BME280;67472;51.554;7.812;2023-02-01T08:42:42;100910.38;;;5.65;100.00
78198;BME280;67472;51.554;7.812;2023-02-01T08:45:35;100910.94;;;5.70;100.00
78198;BME280;67472;51.554;7.812;2023-02-01T08:48:20;100902.22;;;5.70;100.00
78198;BME280;67472;51.554;7.812;2023-02-01T08:51:07;100901.56;;;5.66;100.00
78198;BME280;67472;51.554;7.812;2023-02-01T08:53:52;100904.94;;;5.68;100.00
78198;BME280;67472;51.554;7.812;2023-02-01T08:56:37;100916.84;;;5.74;100.00
78198;BME280;67472;51.554;7.812;2023-02-01T08:59:21;100907.84;;;5.78;100.00
78198;BME280;67472;51.554;7.812;2023-02-01T09:02:08;100913.00;;;5.80;100.00
78198;BME280;67472;51.554;7.812;2023-02-01T09:04:52;100905.66;;;5.86;100.00
78198;BME280;67472;51.554;7.812;2023-02-01T09:07:37;100902.25;;;5.84;100.00
78198;BME280;67472;51.554;7.812;2023-02-01T09:10:21;100904.38;;;5.78;100.00
78198;BME280;67472;51.554;7.812;2023-02-01T09:13:06;100898.22;;;5.79;100.00
78198;BME280;67472;51.554;7.812;2023-02-01T09:15:51;100892.03;;;5.80;100.00
78198;BME280;67472;51.554;7.812;2023-02-01T09:18:35;100899.91;;;5.80;100.00
78198;BME280;67472;51.554;7.812;2023-02-01T09:21:19;100896.63;;;5.76;100.00
78198;BME280;67472;51.554;7.812;2023-02-01T09:24:04;100894.84;;;5.77;100.00
78198;BME280;67472;51.554;7.812;2023-02-01T09:26:49;100893.16;;;5.76;100.00
78198;BME280;67472;51.554;7.812;2023-02-01T09:29:33;100900.09;;;5.77;100.00
78198;BME280;67472;51.554;7.812;2023-02-01T09:32:22;100876.22;;;5.81;100.00
78198;BME280;67472;51.554;7.812;2023-02-01T09:35:07;100887.47;;;5.83;100.00
78198;BME280;67472;51.554;7.812;2023-02-01T09:37:55;100877.91;;;5.82;100.00
78198;BME280;67472;51.554;7.812;2023-02-01T09:40:42;100880.44;;;5.84;100.00
78198;BME280;67472;51.554;7.812;2023-02-01T09:43:48;100881.22;;;5.86;100.00
78198;BME280;67472;51.554;7.812;2023-02-01T09:46:37;100875.50;;;5.93;100.00
78198;BME280;67472;51.554;7.812;2023-02-01T09:49:30;100885.94;;;5.95;100.00
78198;BME280;67472;51.554;7.812;2023-02-01T09:52:17;100886.66;;;5.97;100.00
78198;BME280;67472;51.554;7.812;2023-02-01T09:55:11;100877.41;;;5.91;100.00
78198;BME280;67472;51.554;7.812;2023-02-01T09:58:03;100887.09;;;5.89;100.00
78198;BME280;67472;51.554;7.812;2023-02-01T10:00:53;100877.22;;;5.94;100.00
78198;BME280;67472;51.554;7.812;2023-02-01T10:03:38;100891.59;;;5.87;100.00
78198;BME280;67472;51.554;7.812;2023-02-01T10:06:41;100875.69;;;5.90;100.00
78198;BME280;67472;51.554;7.812;2023-02-01T10:21:55;100860.81;;;6.05;100.00
78198;BME280;67472;51.554;7.812;2023-02-01T10:27:35;100871.41;;;6.17;100.00
78198;BME280;67472;51.554;7.812;2023-02-01T10:30:30;100870.75;;;6.14;100.00
78198;BME280;67472;51.554;7.812;2023-02-01T10:36:23;100870.38;;;6.20;100.00
78198;BME280;67472;51.554;7.812;2023-02-01T10:39:14;100862.31;;;6.23;100.00
78198;BME280;67472;51.554;7.812;2023-02-01T10:41:58;100851.63;;;6.26;100.00
78198;BME280;67472;51.554;7.812;2023-02-01T10:44:44;100867.44;;;6.39;100.00
78198;BME280;67472;51.554;7.812;2023-02-01T10:47:30;100853.69;;;6.35;100.00
78198;BME280;67472;51.554;7.812;2023-02-01T10:50:51;100855.53;;;6.33;100.00
78198;BME280;67472;51.554;7.812;2023-02-01T10:56:13;100849.94;;;6.25;100.00
78198;BME280;67472;51.554;7.812;2023-02-01T10:59:06;100859.41;;;6.28;100.00
78198;BME280;67472;51.554;7.812;2023-02-01T11:02:05;100859.16;;;6.18;100.00
78198;BME280;67472;51.554;7.812;2023-02-01T11:05:07;100855.31;;;6.23;100.00
78198;BME280;67472;51.554;7.812;2023-02-01T11:07:54;100858.50;;;6.14;100.00
78198;BME280;67472;51.554;7.812;2023-02-01T11:10:41;100860.06;;;6.17;100.00
78198;BME280;67472;51.554;7.812;2023-02-01T11:13:33;100859.22;;;6.16;100.00
78198;BME280;67472;51.554;7.812;2023-02-01T11:16:30;100853.91;;;6.18;100.00
78198;BME280;67472;51.554;7.812;2023-02-01T11:19:16;100848.06;;;6.13;100.00
78198;BME280;67472;51.554;7.812;2023-02-01T11:22:01;100849.47;;;6.18;100.00
78198;BME280;67472;51.554;7.812;2023-02-01T11:24:45;100838.72;;;6.09;100.00
78198;BME280;67472;51.554;7.812;2023-02-01T11:27:32;100838.53;;;6.12;100.00
78198;BME280;67472;51.554;7.812;2023-02-01T11:30:43;100823.06;;;6.07;100.00
78198;BME280;67472;51.554;7.812;2023-02-01T11:33:30;100822.16;;;6.08;100.00
78198;BME280;67472;51.554;7.812;2023-02-01T11:36:21;100817.84;;;6.07;100.00
78198;BME280;67472;51.554;7.812;2023-02-01T11:42:04;100801.34;;;6.05;100.00
78198;BME280;67472;51.554;7.812;2023-02-01T11:44:48;100792.56;;;6.06;100.00
78198;BME280;67472;51.554;7.812;2023-02-01T11:47:40;100799.03;;;6.15;100.00
78198;BME280;67472;51.554;7.812;2023-02-01T11:50:42;100789.44;;;6.28;100.00
78198;BME280;67472;51.554;7.812;2023-02-01T12:11:59;100732.56;;;6.29;100.00
78198;BME280;67472;51.554;7.812;2023-02-01T12:27:16;100754.56;;;5.85;100.00
78198;BME280;67472;51.554;7.812;2023-02-01T12:33:07;100764.56;;;5.79;100.00
78198;BME280;67472;51.554;7.812;2023-02-01T12:36:16;100771.75;;;5.75;100.00
78198;BME280;67472;51.554;7.812;2023-02-01T12:39:23;100771.13;;;5.72;100.00
78198;BME280;67472;51.554;7.812;2023-02-01T12:42:10;100783.44;;;5.69;100.00
78198;BME280;67472;51.554;7.812;2023-02-01T12:45:04;100771.94;;;5.72;100.00
78198;BME280;67472;51.554;7.812;2023-02-01T12:47:57;100766.44;;;5.62;100.00
78198;BME280;67472;51.554;7.812;2023-02-01T12:50:51;100754.19;;;5.63;100.00
78198;BME280;67472;51.554;7.812;2023-02-01T12:53:51;100767.19;;;5.64;100.00
78198;BME280;67472;51.554;7.812;2023-02-01T12:56:57;100741.81;;;5.65;100.00
78198;BME280;67472;51.554;7.812;2023-02-01T12:59:59;100741.25;;;5.74;100.00
78198;BME280;67472;51.554;7.812;2023-02-01T13:11:49;100734.16;;;5.90;100.00
78198;BME280;67472;51.554;7.812;2023-02-01T13:14:43;100735.66;;;5.94;100.00
78198;BME280;67472;51.554;7.812;2023-02-01T13:17:32;100742.31;;;5.86;100.00
78198;BME280;67472;51.554;7.812;2023-02-01T13:23:46;100750.31;;;5.83;100.00
78198;BME280;67472;51.554;7.812;2023-02-01T13:26:32;100714.56;;;5.82;100.00
78198;BME280;67472;51.554;7.812;2023-02-01T13:29:17;100746.94;;;5.81;100.00
78198;BME280;67472;51.554;7.812;2023-02-01T13:39:02;100761.56;;;5.70;100.00
78198;BME280;67472;51.554;7.812;2023-02-01T13:41:55;100774.19;;;5.78;100.00
78198;BME280;67472;51.554;7.812;2023-02-01T13:44:51;100770.44;;;5.82;100.00
78198;BME280;67472;51.554;7.812;2023-02-01T13:47:42;100772.16;;;5.83;100.00
78198;BME280;67472;51.554;7.812;2023-02-01T13:50:31;100772.91;;;5.85;100.00
78198;BME280;67472;51.554;7.812;2023-02-01T13:53:26;100780.47;;;5.90;100.00
78198;BME280;67472;51.554;7.812;2023-02-01T13:56:17;100765.03;;;5.99;100.00
78198;BME280;67472;51.554;7.812;2023-02-01T14:02:50;100769.06;;;6.05;100.00
78198;BME280;67472;51.554;7.812;2023-02-01T14:08:40;100749.75;;;6.20;100.00
78198;BME280;67472;51.554;7.812;2023-02-01T14:11:41;100751.31;;;6.22;100.00
78198;BME280;67472;51.554;7.812;2023-02-01T14:24:16;100731.06;;;6.51;100.00
78198;BME280;67472;51.554;7.812;2023-02-01T14:26:52;100720.50;;;6.53;100.00
78198;BME280;67472;51.554;7.812;2023-02-01T14:29:40;100721.97;;;6.57;100.00
78198;BME280;67472;51.554;7.812;2023-02-01T14:32:37;100730.69;;;6.57;100.00
78198;BME280;67472;51.554;7.812;2023-02-01T14:35:26;100727.00;;;6.60;100.00
78198;BME280;67472;51.554;7.812;2023-02-01T14:38:11;100740.88;;;6.62;100.00
78198;BME280;67472;51.554;7.812;2023-02-01T14:40:55;100741.25;;;6.43;100.00
78198;BME280;67472;51.554;7.812;2023-02-01T14:47:10;100761.91;;;6.21;100.00
78198;BME280;67472;51.554;7.812;2023-02-01T14:53:20;100757.59;;;6.20;100.00
78198;BME280;67472;51.554;7.812;2023-02-01T14:56:12;100772.66;;;6.31;100.00
78198;BME280;67472;51.554;7.812;2023-02-01T14:59:06;100760.91;;;6.36;100.00
78198;BME280;67472;51.554;7.812;2023-02-01T15:01:56;100775.53;;;6.40;100.00
78198;BME280;67472;51.554;7.812;2023-02-01T15:04:42;100768.00;;;6.48;100.00
78198;BME280;67472;51.554;7.812;2023-02-01T15:07:28;100761.53;;;6.54;100.00
78198;BME280;67472;51.554;7.812;2023-02-01T15:10:13;100751.88;;;6.54;100.00
78198;BME280;67472;51.554;7.812;2023-02-01T15:12:58;100752.59;;;6.56;100.00
78198;BME280;67472;51.554;7.812;2023-02-01T15:15:42;100758.81;;;6.55;100.00
78198;BME280;67472;51.554;7.812;2023-02-01T15:18:27;100756.66;;;6.48;100.00
78198;BME280;67472;51.554;7.812;2023-02-01T15:24:34;100773.06;;;6.51;100.00
78198;BME280;67472;51.554;7.812;2023-02-01T15:27:18;100770.25;;;6.54;100.00
78198;BME280;67472;51.554;7.812;2023-02-01T15:30:07;100777.28;;;6.54;100.00
78198;BME280;67472;51.554;7.812;2023-02-01T15:33:06;100778.03;;;6.56;100.00
78198;BME280;67472;51.554;7.812;2023-02-01T15:35:54;100777.91;;;6.57;100.00
78198;BME280;67472;51.554;7.812;2023-02-01T15:38:41;100763.66;;;6.61;100.00
78198;BME280;67472;51.554;7.812;2023-02-01T15:41:29;100773.78;;;6.67;100.00
78198;BME280;67472;51.554;7.812;2023-02-01T15:44:24;100766.84;;;6.66;100.00
78198;BME280;67472;51.554;7.812;2023-02-01T15:47:27;100776.16;;;6.70;100.00
78198;BME280;67472;51.554;7.812;2023-02-01T15:50:14;100758.03;;;6.67;100.00
78198;BME280;67472;51.554;7.812;2023-02-01T15:52:59;100751.38;;;6.62;100.00
78198;BME280;67472;51.554;7.812;2023-02-01T15:55:43;100755.78;;;6.61;100.00
78198;BME280;67472;51.554;7.812;2023-02-01T15:58:30;100748.31;;;6.55;100.00
78198;BME280;67472;51.554;7.812;2023-02-01T16:01:16;100756.94;;;6.57;100.00
78198;BME280;67472;51.554;7.812;2023-02-01T16:07:02;100773.84;;;6.39;100.00
78198;BME280;67472;51.554;7.812;2023-02-01T16:09:59;100777.63;;;6.35;100.00
78198;BME280;67472;51.554;7.812;2023-02-01T16:12:50;100789.22;;;6.31;100.00
78198;BME280;67472;51.554;7.812;2023-02-01T16:15:37;100796.44;;;6.28;100.00
78198;BME280;67472;51.554;7.812;2023-02-01T16:18:21;100810.72;;;6.23;100.00
78198;BME280;67472;51.554;7.812;2023-02-01T16:21:06;100801.16;;;6.22;100.00
78198;BME280;67472;51.554;7.812;2023-02-01T16:23:53;100807.88;;;6.12;100.00
78198;BME280;67472;51.554;7.812;2023-02-01T16:26:37;100810.06;;;6.06;100.00
78198;BME280;67472;51.554;7.812;2023-02-01T16:29:22;100817.75;;;6.09;100.00
78198;BME280;67472;51.554;7.812;2023-02-01T16:32:16;100813.41;;;6.22;100.00
78198;BME280;67472;51.554;7.812;2023-02-01T16:35:01;100823.34;;;6.31;100.00
78198;BME280;67472;51.554;7.812;2023-02-01T16:37:46;100821.63;;;6.30;100.00
78198;BME280;67472;51.554;7.812;2023-02-01T16:40:30;100817.78;;;6.36;100.00
78198;BME280;67472;51.554;7.812;2023-02-01T16:46:01;100828.28;;;6.50;100.00
78198;BME280;67472;51.554;7.812;2023-02-01T16:48:52;100827.31;;;6.51;100.00
78198;BME280;67472;51.554;7.812;2023-02-01T16:51:40;100820.31;;;6.37;100.00
78198;BME280;67472;51.554;7.812;2023-02-01T16:54:24;100830.84;;;6.23;100.00
78198;BME280;67472;51.554;7.812;2023-02-01T16:57:16;100854.09;;;6.15;100.00
78198;BME280;67472;51.554;7.812;2023-02-01T17:00:02;100847.34;;;6.11;100.00
78198;BME280;67472;51.554;7.812;2023-02-01T17:02:48;100886.13;;;6.06;100.00
78198;BME280;67472;51.554;7.812;2023-02-01T17:05:34;100908.00;;;5.91;100.00
78198;BME280;67472;51.554;7.812;2023-02-01T17:08:30;100929.84;;;5.76;100.00
78198;BME280;67472;51.554;7.812;2023-02-01T17:11:15;100942.56;;;5.67;100.00
78198;BME280;67472;51.554;7.812;2023-02-01T17:14:20;100958.59;;;5.47;100.00